Terminal Aerodrome Forecast
Issued by NWS

Home | Current Version | Previous Version | Text Only | Print | Product List | Glossary On
Versions: 1 2 3 4 5 6 7 8 9 10 11 12 13 14 15 16 17 18 19 20 21 22 23 24 25 26 27 28 29 30 31 32 33 34 35 36 37 38
616
FTUS45 KGJT 060537
TAFEGE
TAF
KEGE 060537Z 0606/0706 08007KT P6SM BKN060 OVC070
     FM060800 25004KT P6SM BKN150
     FM061700 24004KT P6SM VCSH BKN150
     FM070000 23005KT 5SM -SN BR OVC025
      AMD LTD TO CLD VIS AND WIND TIL 061300=

USA.gov is the U.S. government's official web portal to all federal, state and local government web resources and services.